M I D A S
Marine Information and Data Acquisition System
Tripno 646 of the Zeeleeuw from 2004-02-11 07:52:58 to 2004-02-11 17:59:42
Back to CruiseResearch ActivitiesStationsMapUnderway DataData graphs

EquipmentUnitsComments
TimeDGPSUTC
LatitudeDGPSDM.mWGS84
LongitudeDGPSDM.mWGS84
SpeedMeteo Stationm/sRelative wind speed
DirectionMeteo StationdegRelative wind direction
TemperatureMeteo Stationdeg CelciusAir temperature
PressureMeteo StationPaAtmospheric pressure
HumidityMeteo Station%Relative humidity
Missing or incorrect values are displayed as -999
Metereological data collected by the RV Zeeleeuw from 2004-02-11 07:52:58 to 2004-02-11 17:59:42
                                                                                    Next 1000 lines
Time Latitude Longitude Speed Direction Temperature Pressure Humidity
2004-02-11 07:53:06 51°13.602 2°56.068 5.9 221 7.9 102550 94
2004-02-11 07:53:10 51°13.603 2°56.062 5.5 227 7.9 102550 94
2004-02-11 07:53:15 51°13.606 2°56.054 6.3 229 7.9 102550 94
2004-02-11 07:53:21 51°13.608 2°56.043 5.8 205 7.9 102550 94
2004-02-11 07:53:26 51°13.611 2°56.034 5.5 207 7.9 102550 94
2004-02-11 07:53:31 51°13.614 2°56.025 6.3 217 7.9 102550 94
2004-02-11 07:53:35 51°13.616 2°56.018 7.6 219 7.9 102550 94
2004-02-11 07:53:41 51°13.619 2°56.006 6.4 231 7.9 102550 94
2004-02-11 07:53:46 51°13.622 2°55.996 5.6 199 7.9 102550 94
2004-02-11 07:53:51 51°13.625 2°55.986 9.5 224 7.9 102550 94
2004-02-11 07:53:55 51°13.627 2°55.978 5.2 215 7.9 102550 94
2004-02-11 07:54:01 51°13.631 2°55.966 8.4 216 7.9 102550 94
2004-02-11 07:54:06 51°13.634 2°55.956 10.3 221 8 102550 94
2004-02-11 07:54:11 51°13.637 2°55.946 8.5 220 8 102550 94
2004-02-11 07:54:15 51°13.64 2°55.937 8.5 213 8 102550 94
2004-02-11 07:54:21 51°13.644 2°55.925 8 226 8 102560 94
2004-02-11 07:54:26 51°13.648 2°55.915 9.2 216 8 102560 94
2004-02-11 07:54:31 51°13.652 2°55.905 7.1 213 8 102550 94
2004-02-11 07:54:35 51°13.655 2°55.897 7.3 220 8 102550 94
2004-02-11 07:54:41 51°13.659 2°55.885 8.7 218 8 102560 94
2004-02-11 07:54:46 51°13.663 2°55.875 6.9 226 8 102560 94
2004-02-11 07:54:50 51°13.666 2°55.867 9.2 217 7.9 102560 94
2004-02-11 07:54:55 51°13.67 2°55.857 8.7 209 7.9 102560 94
2004-02-11 07:55:01 51°13.675 2°55.846 8.5 217 7.9 102550 94
2004-02-11 07:55:06 51°13.679 2°55.836 9.3 218 7.9 102550 94
2004-02-11 07:55:11 51°13.682 2°55.828 9 219 7.9 102550 94
2004-02-11 07:55:15 51°13.684 2°55.822 7.1 229 7.9 102550 94
2004-02-11 07:55:19 51°13.686 2°55.818 7.5 235 7.9 102560 94
2004-02-11 07:55:25 51°13.687 2°55.815 5.1 237 7.9 102560 94
2004-02-11 07:55:30 51°13.687 2°55.814 6 242 7.9 102570 94
2004-02-11 07:55:35 51°13.687 2°55.816 9.1 265 7.9 102570 94
2004-02-11 07:55:41 51°13.687 2°55.819 5.1 259 7.9 102560 94
2004-02-11 07:55:45 51°13.687 2°55.82 6.4 258 7.9 102560 94
2004-02-11 07:55:50 51°13.686 2°55.821 6.1 260 7.9 102560 94
2004-02-11 07:55:55 51°13.687 2°55.82 3.4 258 7.9 102560 94
2004-02-11 07:55:59 51°13.686 2°55.819 4.5 253 7.9 102550 94
2004-02-11 07:56:05 51°13.686 2°55.816 4.7 240 7.9 102550 94
2004-02-11 07:56:10 51°13.686 2°55.812 4.6 257 7.9 102550 94
2004-02-11 07:56:15 51°13.686 2°55.808 9.1 267 7.9 102550 94
2004-02-11 07:56:19 51°13.686 2°55.804 4.4 249 7.9 102550 94
2004-02-11 07:56:26 51°13.685 2°55.796 5.6 260 7.9 102550 94
2004-02-11 07:56:30 51°13.685 2°55.792 5.7 239 7.9 102550 94
2004-02-11 07:56:35 51°13.685 2°55.786 6.4 244 7.9 102550 94
2004-02-11 07:56:41 51°13.684 2°55.778 4.1 262 7.9 102550 94
2004-02-11 07:56:46 51°13.684 2°55.772 4 260 7.9 102550 94
2004-02-11 07:56:51 51°13.683 2°55.767 7.6 267 7.9 102550 94
2004-02-11 07:56:56 51°13.683 2°55.764 7.5 262 7.9 102550 94
2004-02-11 07:57:01 51°13.683 2°55.763 5.4 282 7.9 102550 94
2004-02-11 07:57:05 51°13.683 2°55.764 5.2 293 7.9 102550 94
2004-02-11 07:57:10 51°13.684 2°55.765 7.3 311 7.9 102550 94
2004-02-11 07:57:15 51°13.686 2°55.768 6.5 310 7.9 102550 94
2004-02-11 07:57:20 51°13.689 2°55.77 7.6 321 7.9 102560 94
2004-02-11 07:57:25 51°13.692 2°55.773 8.7 330 7.9 102560 94
2004-02-11 07:57:30 51°13.696 2°55.775 7.8 327 7.9 102550 94
2004-02-11 07:57:35 51°13.7 2°55.777 9 338 7.9 102550 94
2004-02-11 07:57:39 51°13.703 2°55.777 6.6 329 7.9 102550 94
2004-02-11 07:57:45 51°13.706 2°55.778 6.3 349 7.9 102550 94
2004-02-11 07:57:50 51°13.707 2°55.778 4.9 348 7.9 102550 94
2004-02-11 07:57:55 51°13.708 2°55.778 6.7 348 7.9 102550 94
2004-02-11 07:57:59 51°13.708 2°55.778 7.7 358 7.9 102530 94
2004-02-11 07:58:05 51°13.707 2°55.778 6.5 351 7.9 102530 94
2004-02-11 07:58:09 51°13.705 2°55.778 7.3 348 7.9 102540 94
2004-02-11 07:58:15 51°13.703 2°55.778 7.4 359 7.9 102540 94
2004-02-11 07:58:21 51°13.702 2°55.778 7.3 5 7.9 102550 94
2004-02-11 07:58:26 51°13.702 2°55.778 7.5 17 7.9 102550 94
2004-02-11 07:58:31 51°13.703 2°55.776 8.1 6 7.9 102540 94
2004-02-11 07:58:35 51°13.705 2°55.775 6.8 13 7.9 102540 94
2004-02-11 07:58:41 51°13.708 2°55.771 6.4 22 7.9 102550 94
2004-02-11 07:58:46 51°13.711 2°55.768 7.6 28 7.9 102540 94
2004-02-11 07:58:50 51°13.713 2°55.765 8 34 7.9 102540 94
2004-02-11 07:58:55 51°13.715 2°55.761 5.9 11 7.9 102540 94
2004-02-11 07:59:01 51°13.718 2°55.757 6.6 22 7.9 102550 94
2004-02-11 07:59:06 51°13.72 2°55.753 5.3 30 7.9 102550 94
2004-02-11 07:59:11 51°13.722 2°55.749 6.4 22 7.9 102540 94
2004-02-11 07:59:15 51°13.725 2°55.746 6.1 31 7.9 102540 94
2004-02-11 07:59:20 51°13.728 2°55.741 6 23 7.9 102550 94
2004-02-11 07:59:25 51°13.732 2°55.736 6.7 19 7.9 102550 94
2004-02-11 07:59:30 51°13.736 2°55.73 8.4 16 7.9 102540 94
2004-02-11 07:59:35 51°13.741 2°55.723 8.4 24 7.9 102540 94
2004-02-11 07:59:41 51°13.748 2°55.714 8 12 7.9 102550 94
2004-02-11 07:59:45 51°13.752 2°55.708 9.4 28 7.9 102550 94
2004-02-11 07:59:50 51°13.758 2°55.7 9.1 23 7.9 102560 94
2004-02-11 07:59:55 51°13.765 2°55.692 8.9 16 7.9 102560 94
2004-02-11 07:59:59 51°13.77 2°55.686 9.5 12 7.9 102560 94
2004-02-11 08:00:05 51°13.779 2°55.677 9.8 11 7.9 102560 94
2004-02-11 08:00:10 51°13.787 2°55.669 10.3 10 7.9 102560 94
2004-02-11 08:00:15 51°13.795 2°55.662 9.5 15 7.9 102560 94
2004-02-11 08:00:19 51°13.802 2°55.656 9.2 15 7.9 102560 94
2004-02-11 08:00:25 51°13.812 2°55.647 10.8 12 7.9 102560 94
2004-02-11 08:00:30 51°13.822 2°55.639 10.7 15 7.9 102560 94
2004-02-11 08:00:35 51°13.831 2°55.632 10.8 11 7.9 102560 94
2004-02-11 08:00:39 51°13.838 2°55.626 10.1 10 7.9 102550 94
2004-02-11 08:00:45 51°13.849 2°55.617 9.5 12 7.9 102550 94
2004-02-11 08:00:50 51°13.859 2°55.61 9.8 18 7.8 102550 94
2004-02-11 08:00:55 51°13.869 2°55.602 9.5 7 7.8 102550 94
2004-02-11 08:00:59 51°13.876 2°55.596 10.4 11 7.8 102560 94
2004-02-11 08:01:05 51°13.888 2°55.587 11.1 10 7.8 102560 94
2004-02-11 08:01:09 51°13.896 2°55.582 10.7 13 7.8 102550 94
2004-02-11 08:01:15 51°13.908 2°55.573 12.7 11 7.8 102550 94
2004-02-11 08:01:20 51°13.918 2°55.566 10.8 9 7.8 102560 94
2004-02-11 08:01:25 51°13.928 2°55.559 11.5 11 7.8 102560 94
2004-02-11 08:01:29 51°13.936 2°55.553 10.4 5 7.8 102560 94
2004-02-11 08:01:35 51°13.949 2°55.545 11.2 7 7.8 102560 94
2004-02-11 08:01:39 51°13.957 2°55.54 10.6 6 7.8 102560 94
2004-02-11 08:01:45 51°13.97 2°55.532 10.4 13 7.8 102560 94
2004-02-11 08:01:50 51°13.981 2°55.525 10.8 8 7.8 102560 94
2004-02-11 08:01:55 51°13.992 2°55.518 11.9 3 7.8 102560 94
2004-02-11 08:01:59 51°14 2°55.513 11.3 10 7.8 102560 94
2004-02-11 08:02:05 51°14.013 2°55.505 10.7 2 7.8 102560 94
2004-02-11 08:02:10 51°14.025 2°55.498 11.3 5 7.8 102560 94
2004-02-11 08:02:15 51°14.036 2°55.49 10.8 10 7.8 102560 94
2004-02-11 08:02:19 51°14.046 2°55.484 11.4 15 7.8 102560 94
2004-02-11 08:02:25 51°14.06 2°55.474 11 4 7.8 102560 94
2004-02-11 08:02:30 51°14.072 2°55.466 11.7 9 7.8 102560 94
2004-02-11 08:02:35 51°14.084 2°55.458 12.4 6 7.8 102560 94
2004-02-11 08:02:39 51°14.094 2°55.451 12 16 7.8 102560 94
2004-02-11 08:02:45 51°14.108 2°55.44 11.6 7 7.8 102560 94
2004-02-11 08:02:50 51°14.12 2°55.431 12 13 7.8 102520 94
2004-02-11 08:02:55 51°14.132 2°55.421 11.8 14 7.8 102520 94
2004-02-11 08:02:59 51°14.142 2°55.413 10.3 8 7.8 102520 94
2004-02-11 08:03:05 51°14.156 2°55.399 11.4 16 7.8 102520 94
2004-02-11 08:03:10 51°14.168 2°55.387 10.8 13 7.8 102530 94
2004-02-11 08:03:15 51°14.181 2°55.375 11.6 9 7.8 102530 94
2004-02-11 08:03:21 51°14.195 2°55.359 10.5 15 7.8 102530 94
2004-02-11 08:03:25 51°14.204 2°55.347 11.3 16 7.8 102530 94
2004-02-11 08:03:29 51°14.213 2°55.335 10.8 24 7.8 102520 94
2004-02-11 08:03:35 51°14.227 2°55.316 10.6 14 7.8 102520 94
2004-02-11 08:03:39 51°14.236 2°55.303 9.6 21 7.8 102520 94
2004-02-11 08:03:45 51°14.25 2°55.283 11.5 23 7.8 102520 94
2004-02-11 08:03:50 51°14.26 2°55.265 9.7 20 7.8 102520 94
2004-02-11 08:03:55 51°14.271 2°55.247 10.7 31 7.8 102520 94
2004-02-11 08:03:59 51°14.278 2°55.232 12 31 7.8 102520 94
2004-02-11 08:04:05 51°14.29 2°55.209 11 30 7.8 102520 94
2004-02-11 08:04:10 51°14.3 2°55.189 10.2 17 7.8 102520 94
2004-02-11 08:04:15 51°14.309 2°55.169 10.3 22 7.8 102520 94
2004-02-11 08:04:19 51°14.317 2°55.153 12.4 27 7.8 102520 94
2004-02-11 08:04:25 51°14.328 2°55.128 12.6 26 7.8 102520 94
2004-02-11 08:04:30 51°14.338 2°55.108 13.9 26 7.8 102520 94
2004-02-11 08:04:35 51°14.348 2°55.088 14.5 28 7.8 102520 94
2004-02-11 08:04:39 51°14.356 2°55.071 12.6 29 7.8 102520 94
2004-02-11 08:04:45 51°14.368 2°55.047 13 27 7.8 102520 94
2004-02-11 08:04:50 51°14.379 2°55.026 12.4 28 7.8 102510 94
2004-02-11 08:04:55 51°14.389 2°55.005 13.6 28 7.8 102510 94
2004-02-11 08:05:00 51°14.399 2°54.983 13.4 26 7.8 102500 94
2004-02-11 08:05:05 51°14.408 2°54.961 13.9 32 7.8 102500 94
2004-02-11 08:05:10 51°14.417 2°54.937 13.3 28 7.8 102500 94
2004-02-11 08:05:15 51°14.424 2°54.913 13.5 32 7.8 102500 94
2004-02-11 08:05:19 51°14.431 2°54.893 11.8 27 7.8 102500 94
2004-02-11 08:05:25 51°14.44 2°54.863 12.6 33 7.8 102500 94
2004-02-11 08:05:30 51°14.448 2°54.84 12.8 28 7.8 102490 94
2004-02-11 08:05:35 51°14.457 2°54.818 12.3 25 7.8 102490 94
2004-02-11 08:05:39 51°14.464 2°54.801 12.3 23 7.8 102540 94
2004-02-11 08:05:45 51°14.474 2°54.778 12.6 24 7.8 102540 94
2004-02-11 08:05:50 51°14.482 2°54.759 12.3 27 7.8 102490 94
2004-02-11 08:05:55 51°14.49 2°54.741 13.4 26 7.8 102490 94
2004-02-11 08:06:00 51°14.497 2°54.724 12.3 24 7.8 102510 94
2004-02-11 08:06:05 51°14.504 2°54.707 11.5 27 7.8 102510 94
2004-02-11 08:06:10 51°14.511 2°54.691 11.7 28 7.8 102520 94
2004-02-11 08:06:15 51°14.518 2°54.675 11.8 27 7.8 102520 94
2004-02-11 08:06:20 51°14.525 2°54.659 11.1 30 7.8 102520 94
2004-02-11 08:06:25 51°14.532 2°54.643 10.7 34 7.8 102520 94
2004-02-11 08:06:30 51°14.538 2°54.627 11 28 7.8 102510 94
2004-02-11 08:06:35 51°14.544 2°54.612 11.7 28 7.8 102510 94
2004-02-11 08:06:39 51°14.549 2°54.599 12 29 7.8 102520 94
2004-02-11 08:06:45 51°14.556 2°54.581 10.8 29 7.8 102520 94
2004-02-11 08:06:50 51°14.561 2°54.566 11.7 34 7.8 102520 94
2004-02-11 08:06:55 51°14.566 2°54.55 11.6 32 7.8 102520 94
2004-02-11 08:06:59 51°14.57 2°54.538 10.1 33 7.8 102520 94
2004-02-11 08:07:05 51°14.577 2°54.52 11.5 30 7.8 102520 94
2004-02-11 08:07:10 51°14.583 2°54.505 11.1 30 7.8 102520 94
2004-02-11 08:07:15 51°14.589 2°54.488 11.9 30 7.8 102520 94
2004-02-11 08:07:19 51°14.595 2°54.474 12.1 27 7.8 102520 94
2004-02-11 08:07:25 51°14.604 2°54.452 12 27 7.8 102520 94
2004-02-11 08:07:30 51°14.612 2°54.431 12.6 25 7.8 102520 94
2004-02-11 08:07:35 51°14.62 2°54.41 12.9 26 7.8 102520 94
2004-02-11 08:07:39 51°14.627 2°54.392 13.8 29 7.8 102510 94
2004-02-11 08:07:45 51°14.638 2°54.365 13.1 25 7.8 102510 94
2004-02-11 08:07:50 51°14.648 2°54.341 13.3 28 7.8 102500 94
2004-02-11 08:07:55 51°14.658 2°54.317 13.9 30 7.8 102500 94
2004-02-11 08:07:59 51°14.666 2°54.298 13.2 25 7.8 102490 94
2004-02-11 08:08:05 51°14.678 2°54.268 13.1 26 7.8 102490 94
2004-02-11 08:08:10 51°14.688 2°54.243 14.5 27 7.8 102480 94
2004-02-11 08:08:15 51°14.697 2°54.218 14.3 27 7.8 102480 94
2004-02-11 08:08:19 51°14.705 2°54.197 12.9 29 7.8 102480 94
2004-02-11 08:08:25 51°14.717 2°54.166 13.5 26 7.8 102480 94
2004-02-11 08:08:30 51°14.726 2°54.139 13.6 26 7.8 102490 94
2004-02-11 08:08:35 51°14.735 2°54.113 14.2 32 7.8 102490 94
2004-02-11 08:08:39 51°14.743 2°54.092 13.8 26 7.8 102480 94
2004-02-11 08:08:45 51°14.754 2°54.061 13.5 29 7.8 102480 94
2004-02-11 08:08:50 51°14.764 2°54.035 13.8 27 7.8 102480 94
2004-02-11 08:08:55 51°14.774 2°54.009 14 27 7.8 102480 94
2004-02-11 08:09:01 51°14.785 2°53.978 14.3 27 7.8 102480 94
2004-02-11 08:09:05 51°14.793 2°53.957 13.2 25 7.8 102480 94
2004-02-11 08:09:10 51°14.803 2°53.931 13.6 30 7.8 102490 94
2004-02-11 08:09:15 51°14.813 2°53.905 13.6 26 7.8 102490 94
2004-02-11 08:09:19 51°14.821 2°53.884 14.9 26 7.8 102480 94
2004-02-11 08:09:25 51°14.833 2°53.853 14.1 25 7.8 102480 94
2004-02-11 08:09:29 51°14.841 2°53.832 13.9 27 7.8 102490 94
2004-02-11 08:09:35 51°14.853 2°53.802 14.4 25 7.8 102490 94
2004-02-11 08:09:40 51°14.863 2°53.775 13.4 26 7.8 102480 94
2004-02-11 08:09:45 51°14.873 2°53.749 14.6 27 7.8 102480 94
2004-02-11 08:09:50 51°14.883 2°53.723 15.1 27 7.8 102490 94
2004-02-11 08:09:55 51°14.893 2°53.697 13.9 27 7.8 102490 94
2004-02-11 08:09:59 51°14.901 2°53.676 14.5 29 7.8 102490 94
2004-02-11 08:10:05 51°14.913 2°53.645 14.2 27 7.8 102490 94
2004-02-11 08:10:09 51°14.921 2°53.625 14.6 29 7.8 102490 94
2004-02-11 08:10:15 51°14.933 2°53.593 14.6 25 7.8 102490 94
2004-02-11 08:10:19 51°14.941 2°53.572 13.2 29 7.8 102480 94
2004-02-11 08:10:25 51°14.953 2°53.541 13.8 28 7.8 102480 94
2004-02-11 08:10:30 51°14.963 2°53.515 14.8 27 7.8 102490 94
2004-02-11 08:10:35 51°14.972 2°53.489 14.2 31 7.8 102490 94
2004-02-11 08:10:39 51°14.98 2°53.468 13.4 27 7.8 102480 94
2004-02-11 08:10:45 51°14.992 2°53.436 14.2 25 7.8 102480 94
2004-02-11 08:10:49 51°15 2°53.415 14.1 29 7.8 102480 94
2004-02-11 08:10:55 51°15.012 2°53.384 14.3 28 7.8 102480 94
2004-02-11 08:10:59 51°15.021 2°53.364 15 29 7.8 102480 94
2004-02-11 08:11:05 51°15.032 2°53.333 14.4 28 7.8 102480 94
2004-02-11 08:11:10 51°15.043 2°53.306 14.2 28 7.8 102490 94
2004-02-11 08:11:15 51°15.053 2°53.28 14.5 30 7.8 102490 94
2004-02-11 08:11:19 51°15.061 2°53.259 14.8 28 7.8 102490 94
2004-02-11 08:11:25 51°15.072 2°53.227 14.3 28 7.8 102490 94
2004-02-11 08:11:30 51°15.081 2°53.2 14 32 7.8 102490 94
2004-02-11 08:11:35 51°15.09 2°53.172 13.8 32 7.8 102490 94
2004-02-11 08:11:39 51°15.098 2°53.151 14.7 28 7.8 102490 94
2004-02-11 08:11:45 51°15.108 2°53.118 13.8 29 7.8 102490 94
2004-02-11 08:11:50 51°15.117 2°53.09 14.5 31 7.8 102490 94
2004-02-11 08:11:55 51°15.126 2°53.063 12.6 29 7.8 102490 94
2004-02-11 08:11:59 51°15.133 2°53.04 14.8 32 7.8 102490 94
2004-02-11 08:12:05 51°15.143 2°53.007 14.1 30 7.8 102490 94
2004-02-11 08:12:09 51°15.15 2°52.985 14.7 30 7.8 102480 94
2004-02-11 08:12:15 51°15.16 2°52.951 14.5 30 7.8 102480 94
2004-02-11 08:12:19 51°15.167 2°52.929 12.9 34 7.8 102490 94
2004-02-11 08:12:25 51°15.177 2°52.895 13.8 31 7.8 102490 94
2004-02-11 08:12:30 51°15.185 2°52.866 14.1 34 7.8 102490 94
2004-02-11 08:12:35 51°15.194 2°52.838 14.7 33 7.8 102490 94
2004-02-11 08:12:39 51°15.2 2°52.815 14 34 7.8 102490 94
2004-02-11 08:12:45 51°15.21 2°52.782 15.1 32 7.8 102490 94
2004-02-11 08:12:50 51°15.219 2°52.753 14.9 31 7.8 102490 94
2004-02-11 08:12:55 51°15.227 2°52.725 14.4 34 7.8 102490 94
2004-02-11 08:12:59 51°15.234 2°52.702 14.7 33 7.8 102490 94
2004-02-11 08:13:05 51°15.244 2°52.668 14.4 34 7.8 102490 94
2004-02-11 08:13:10 51°15.253 2°52.64 14.2 32 7.8 102490 94
2004-02-11 08:13:15 51°15.261 2°52.612 14 36 7.8 102490 94
2004-02-11 08:13:19 51°15.268 2°52.59 14.5 31 7.8 102490 94
2004-02-11 08:13:25 51°15.278 2°52.556 14.7 33 7.8 102490 94
2004-02-11 08:13:30 51°15.286 2°52.528 14.7 37 7.8 102490 94
2004-02-11 08:13:35 51°15.295 2°52.5 14.3 32 7.8 102490 94
2004-02-11 08:13:39 51°15.302 2°52.477 13.5 31 7.8 102490 94
2004-02-11 08:13:45 51°15.312 2°52.444 13.8 35 7.8 102490 94
2004-02-11 08:13:49 51°15.318 2°52.421 14.7 31 7.8 102490 94
2004-02-11 08:13:55 51°15.328 2°52.388 13.9 33 7.8 102490 94
2004-02-11 08:13:59 51°15.335 2°52.365 14.3 35 7.8 102480 94
2004-02-11 08:14:05 51°15.345 2°52.332 14.7 39 7.8 102480 94
2004-02-11 08:14:10 51°15.354 2°52.304 15.1 35 7.8 102490 94
2004-02-11 08:14:15 51°15.362 2°52.276 14.4 33 7.8 102490 94
2004-02-11 08:14:19 51°15.368 2°52.253 14.3 36 7.8 102490 94
2004-02-11 08:14:25 51°15.378 2°52.22 13.3 38 7.8 102490 94
2004-02-11 08:14:30 51°15.384 2°52.19 13.5 36 7.8 102490 94
2004-02-11 08:14:35 51°15.391 2°52.161 14.3 36 7.8 102490 94
2004-02-11 08:14:39 51°15.395 2°52.137 13.6 35 7.8 102490 94
2004-02-11 08:14:45 51°15.403 2°52.102 13.2 37 7.8 102490 94
2004-02-11 08:14:50 51°15.408 2°52.072 13.9 36 7.8 102490 94
2004-02-11 08:14:55 51°15.414 2°52.042 12.9 35 7.8 102490 94
2004-02-11 08:14:59 51°15.419 2°52.018 13.4 40 7.8 102490 94
2004-02-11 08:15:05 51°15.425 2°51.982 13.6 42 7.8 102490 94
2004-02-11 08:15:09 51°15.429 2°51.958 13 37 7.8 102490 94
2004-02-11 08:15:15 51°15.435 2°51.922 13.5 42 7.8 102490 94
2004-02-11 08:15:19 51°15.439 2°51.897 13.7 42 7.8 102490 94
2004-02-11 08:15:25 51°15.444 2°51.861 13.7 44 7.8 102490 94
2004-02-11 08:15:30 51°15.449 2°51.83 13 42 7.8 102490 94
2004-02-11 08:15:35 51°15.452 2°51.798 13 45 7.8 102490 94
2004-02-11 08:15:40 51°15.455 2°51.767 12.9 43 7.8 102480 94
2004-02-11 08:15:45 51°15.457 2°51.735 13.7 45 7.8 102480 94
2004-02-11 08:15:50 51°15.46 2°51.704 12.1 43 7.8 102480 94
2004-02-11 08:15:55 51°15.462 2°51.672 12.4 48 7.8 102480 94
2004-02-11 08:15:59 51°15.464 2°51.647 12.6 47 7.8 102490 94
2004-02-11 08:16:05 51°15.466 2°51.609 12.6 46 7.8 102490 94
2004-02-11 08:16:10 51°15.468 2°51.577 12.9 42 7.8 102490 94
2004-02-11 08:16:15 51°15.47 2°51.545 12.5 44 7.8 102490 94
2004-02-11 08:16:20 51°15.472 2°51.513 12.4 47 7.8 102550 94
2004-02-11 08:16:25 51°15.475 2°51.482 13.4 44 7.8 102550 94
2004-02-11 08:16:30 51°15.477 2°51.45 12.6 46 7.8 102490 94
2004-02-11 08:16:35 51°15.479 2°51.418 12.1 49 7.8 102490 94
2004-02-11 08:16:40 51°15.481 2°51.387 13.1 41 7.8 102490 94
2004-02-11 08:16:45 51°15.483 2°51.355 13.2 44 7.8 102490 94
2004-02-11 08:16:50 51°15.485 2°51.323 12.8 45 7.8 102490 94
2004-02-11 08:16:55 51°15.488 2°51.292 12.8 40 7.8 102490 94
2004-02-11 08:16:59 51°15.489 2°51.266 12.5 43 7.8 102500 94
2004-02-11 08:17:05 51°15.492 2°51.229 13.3 42 7.8 102500 94
2004-02-11 08:17:10 51°15.494 2°51.197 12.3 43 7.8 102490 94
2004-02-11 08:17:15 51°15.496 2°51.165 12.4 42 7.8 102490 94
2004-02-11 08:17:19 51°15.498 2°51.14 12.2 38 7.8 102500 94
2004-02-11 08:17:25 51°15.501 2°51.102 13.6 43 7.8 102500 94
2004-02-11 08:17:30 51°15.504 2°51.071 12.8 42 7.8 102500 94
2004-02-11 08:17:35 51°15.506 2°51.039 12.1 41 7.8 102500 94
2004-02-11 08:17:39 51°15.508 2°51.014 13 43 7.8 102490 94
2004-02-11 08:17:45 51°15.51 2°50.976 12.4 40 7.8 102490 94
2004-02-11 08:17:49 51°15.512 2°50.951 12.3 43 7.8 102500 94
2004-02-11 08:17:55 51°15.515 2°50.913 12.7 43 7.8 102500 94
2004-02-11 08:18:00 51°15.518 2°50.881 13.5 41 7.8 102500 94
2004-02-11 08:18:05 51°15.52 2°50.849 11.8 40 7.8 102500 94
2004-02-11 08:18:10 51°15.522 2°50.818 13 41 7.8 102560 94
2004-02-11 08:18:15 51°15.525 2°50.786 11.6 45 7.8 102560 94
2004-02-11 08:18:19 51°15.527 2°50.761 12.5 42 7.8 102560 94
2004-02-11 08:18:25 51°15.53 2°50.723 12.7 43 7.8 102560 94
2004-02-11 08:18:30 51°15.532 2°50.692 12.6 42 7.8 102510 94
2004-02-11 08:18:35 51°15.534 2°50.66 12.3 42 7.8 102510 94
2004-02-11 08:18:39 51°15.537 2°50.635 13 43 7.8 102500 94
2004-02-11 08:18:45 51°15.54 2°50.597 12.1 41 7.8 102500 94
2004-02-11 08:18:50 51°15.542 2°50.565 12.9 42 7.8 102500 94
2004-02-11 08:18:55 51°15.545 2°50.534 12 40 7.8 102500 94
2004-02-11 08:18:59 51°15.546 2°50.509 12.4 39 7.8 102500 94
2004-02-11 08:19:05 51°15.549 2°50.471 13.1 45 7.8 102500 94
2004-02-11 08:19:09 51°15.551 2°50.446 12.6 42 7.8 102510 94
2004-02-11 08:19:15 51°15.555 2°50.408 12.7 39 7.8 102510 94
2004-02-11 08:19:19 51°15.556 2°50.382 13.1 43 7.8 102500 94
2004-02-11 08:19:25 51°15.56 2°50.344 12.3 37 7.8 102500 94
2004-02-11 08:19:30 51°15.562 2°50.313 13.6 42 7.8 102500 94
2004-02-11 08:19:35 51°15.565 2°50.281 13.2 36 7.8 102500 94
2004-02-11 08:19:39 51°15.567 2°50.256 14.2 42 7.8 102500 94
2004-02-11 08:19:45 51°15.57 2°50.218 13.1 42 7.8 102500 94
2004-02-11 08:19:50 51°15.573 2°50.186 12.9 42 7.8 102560 94
2004-02-11 08:19:55 51°15.575 2°50.154 13.1 43 7.8 102560 94
2004-02-11 08:20:00 51°15.578 2°50.123 13.4 46 7.8 102500 94
2004-02-11 08:20:05 51°15.58 2°50.091 12.6 35 7.8 102500 94
2004-02-11 08:20:10 51°15.583 2°50.059 13.4 43 7.8 102500 94
2004-02-11 08:20:15 51°15.585 2°50.028 12 42 7.8 102500 94
2004-02-11 08:20:20 51°15.587 2°49.996 12.8 42 7.8 102500 94
2004-02-11 08:20:25 51°15.59 2°49.964 13.3 45 7.8 102500 94
2004-02-11 08:20:30 51°15.591 2°49.932 13.3 47 7.8 102500 95
2004-02-11 08:20:35 51°15.593 2°49.901 13.7 44 7.8 102500 95
2004-02-11 08:20:39 51°15.594 2°49.875 13.5 49 7.8 102500 95
2004-02-11 08:20:45 51°15.596 2°49.837 13.6 51 7.8 102500 95
2004-02-11 08:20:50 51°15.597 2°49.805 14 46 7.8 102500 95
2004-02-11 08:20:55 51°15.599 2°49.773 12.9 47 7.8 102500 95
2004-02-11 08:20:59 51°15.6 2°49.747 13.8 44 7.8 102490 95
2004-02-11 08:21:05 51°15.602 2°49.709 13.2 43 7.8 102490 95
2004-02-11 08:21:10 51°15.604 2°49.677 12.9 47 7.8 102490 95
2004-02-11 08:21:15 51°15.605 2°49.645 12.9 46 7.8 102490 95
2004-02-11 08:21:20 51°15.607 2°49.614 13.5 48 7.8 102490 94
2004-02-11 08:21:25 51°15.608 2°49.582 14.3 49 7.8 102490 94
2004-02-11 08:21:30 51°15.61 2°49.55 14 45 7.8 102490 95
2004-02-11 08:21:35 51°15.612 2°49.518 12.7 52 7.8 102490 95
2004-02-11 08:21:40 51°15.613 2°49.487 12.2 47 7.8 102500 95
2004-02-11 08:21:45 51°15.615 2°49.455 12.9 43 7.8 102500 95
2004-02-11 08:21:50 51°15.616 2°49.424 13.6 43 7.8 102510 95
2004-02-11 08:21:55 51°15.618 2°49.392 13 50 7.8 102510 95
2004-02-11 08:21:59 51°15.619 2°49.367 13 43 7.8 102500 95
2004-02-11 08:22:04 51°15.621 2°49.335 12.4 44 7.8 102500 95
2004-02-11 08:22:10 51°15.623 2°49.298 13.2 49 7.8 102510 95
2004-02-11 08:22:15 51°15.624 2°49.266 13.6 48 7.8 102510 95
2004-02-11 08:22:19 51°15.626 2°49.241 12.9 52 7.8 102510 95
2004-02-11 08:22:25 51°15.627 2°49.203 13.3 53 7.8 102510 95
2004-02-11 08:22:30 51°15.629 2°49.172 13.5 46 7.8 102500 95
2004-02-11 08:22:35 51°15.631 2°49.14 13.3 53 7.8 102500 95
2004-02-11 08:22:40 51°15.633 2°49.109 12.8 43 7.8 102490 95
2004-02-11 08:22:45 51°15.634 2°49.078 13.3 45 7.8 102490 95
2004-02-11 08:22:50 51°15.636 2°49.046 13.2 46 7.8 102490 95
2004-02-11 08:22:55 51°15.638 2°49.015 13.8 50 7.8 102490 95
2004-02-11 08:22:59 51°15.64 2°48.989 12.5 51 7.8 102500 95
2004-02-11 08:23:05 51°15.642 2°48.952 12.8 46 7.8 102500 95
2004-02-11 08:23:09 51°15.643 2°48.927 13.4 45 7.8 102500 95
2004-02-11 08:23:15 51°15.646 2°48.888 14.1 47 7.8 102500 95
2004-02-11 08:23:21 51°15.648 2°48.851 12.8 48 7.8 102500 95
2004-02-11 08:23:25 51°15.65 2°48.826 12.7 41 7.8 102500 95
2004-02-11 08:23:30 51°15.651 2°48.794 12.6 48 7.8 102490 95
2004-02-11 08:23:35 51°15.653 2°48.763 13 43 7.8 102490 95
2004-02-11 08:23:39 51°15.654 2°48.737 11.8 44 7.8 102500 95
2004-02-11 08:23:45 51°15.657 2°48.699 12.6 43 7.8 102500 95
2004-02-11 08:23:50 51°15.659 2°48.667 11.7 45 7.8 102500 95
2004-02-11 08:23:55 51°15.661 2°48.636 13.1 45 7.8 102500 95
2004-02-11 08:23:59 51°15.662 2°48.611 13.8 45 7.8 102500 95
2004-02-11 08:24:05 51°15.665 2°48.572 11.6 41 7.8 102500 95
2004-02-11 08:24:10 51°15.666 2°48.54 12.5 43 7.8 102500 95
2004-02-11 08:24:15 51°15.668 2°48.509 12.1 42 7.8 102500 95
2004-02-11 08:24:19 51°15.67 2°48.483 13.4 44 7.8 102500 95
2004-02-11 08:24:25 51°15.672 2°48.445 13.7 41 7.8 102500 95
2004-02-11 08:24:30 51°15.675 2°48.413 12.8 46 7.8 102500 95
2004-02-11 08:24:35 51°15.677 2°48.381 14 50 7.8 102500 95
2004-02-11 08:24:40 51°15.678 2°48.349 12.6 44 7.8 102500 95
2004-02-11 08:24:45 51°15.681 2°48.318 12.9 50 7.8 102500 95
2004-02-11 08:24:50 51°15.682 2°48.286 13.8 47 7.8 102510 95
2004-02-11 08:24:55 51°15.684 2°48.254 12.9 49 7.8 102510 95
2004-02-11 08:24:59 51°15.686 2°48.229 13.7 45 7.8 102500 95
2004-02-11 08:25:05 51°15.687 2°48.19 13.9 45 7.8 102500 95
2004-02-11 08:25:10 51°15.689 2°48.158 12.7 45 7.8 102500 95
2004-02-11 08:25:15 51°15.691 2°48.126 12.5 44 7.8 102500 95
2004-02-11 08:25:19 51°15.693 2°48.101 12.5 44 7.8 102500 95
2004-02-11 08:25:25 51°15.695 2°48.062 12.9 42 7.8 102500 95
2004-02-11 08:25:29 51°15.696 2°48.037 13.6 50 7.8 102510 95
2004-02-11 08:25:35 51°15.699 2°47.998 12.9 43 7.8 102510 95
2004-02-11 08:25:40 51°15.7 2°47.966 12.4 48 7.8 102500 95
2004-02-11 08:25:45 51°15.702 2°47.934 12.8 46 7.8 102500 95
2004-02-11 08:25:50 51°15.704 2°47.902 12.7 44 7.8 102510 95
2004-02-11 08:25:55 51°15.706 2°47.87 12 42 7.8 102510 95
2004-02-11 08:25:59 51°15.707 2°47.844 12.6 40 7.8 102510 95
2004-02-11 08:26:05 51°15.71 2°47.805 12.7 43 7.8 102510 95
2004-02-11 08:26:10 51°15.712 2°47.774 11.6 37 7.8 102510 95
2004-02-11 08:26:15 51°15.713 2°47.741 12.1 42 7.8 102510 95
2004-02-11 08:26:19 51°15.715 2°47.716 13.5 41 7.8 102510 95
2004-02-11 08:26:25 51°15.717 2°47.677 12.4 38 7.8 102510 95
2004-02-11 08:26:30 51°15.719 2°47.644 13 39 7.8 102520 95
2004-02-11 08:26:35 51°15.721 2°47.612 12.4 38 7.8 102520 95
2004-02-11 08:26:39 51°15.722 2°47.587 13.2 46 7.8 102510 95
2004-02-11 08:26:45 51°15.724 2°47.548 13.5 45 7.8 102510 95
2004-02-11 08:26:50 51°15.726 2°47.516 12.9 42 7.8 102510 95
2004-02-11 08:26:55 51°15.728 2°47.484 12.8 45 7.8 102510 95
2004-02-11 08:26:59 51°15.73 2°47.458 13.3 41 7.8 102520 95
2004-02-11 08:27:05 51°15.732 2°47.42 13 42 7.8 102520 95
2004-02-11 08:27:10 51°15.734 2°47.388 13.9 42 7.8 102510 95
2004-02-11 08:27:15 51°15.735 2°47.356 13.5 38 7.8 102510 95
2004-02-11 08:27:19 51°15.737 2°47.33 12.2 39 7.8 102510 95
2004-02-11 08:27:25 51°15.738 2°47.291 12.9 44 7.8 102510 95
2004-02-11 08:27:30 51°15.741 2°47.259 12.6 39 7.8 102520 95
2004-02-11 08:27:35 51°15.742 2°47.227 13.5 47 7.8 102520 95
2004-02-11 08:27:41 51°15.744 2°47.189 12 38 7.8 102520 95
2004-02-11 08:27:45 51°15.746 2°47.163 13.1 46 7.8 102520 95
2004-02-11 08:27:50 51°15.747 2°47.131 12.3 38 7.8 102510 95
2004-02-11 08:27:55 51°15.749 2°47.099 13.4 48 7.8 102510 95
2004-02-11 08:27:59 51°15.75 2°47.073 12.7 41 7.8 102510 95
2004-02-11 08:28:05 51°15.751 2°47.035 13.6 50 7.8 102510 95
2004-02-11 08:28:10 51°15.751 2°47.002 12.4 47 7.8 102520 95
2004-02-11 08:28:15 51°15.752 2°46.97 12.5 44 7.8 102520 95
2004-02-11 08:28:19 51°15.754 2°46.945 12.6 42 7.8 102520 95
2004-02-11 08:28:25 51°15.754 2°46.907 11.7 46 7.8 102520 95
2004-02-11 08:28:30 51°15.756 2°46.875 12.3 43 7.8 102520 95
2004-02-11 08:28:35 51°15.756 2°46.844 13.2 49 7.8 102520 95
2004-02-11 08:28:40 51°15.758 2°46.812 13.7 42 7.8 102520 95
2004-02-11 08:28:45 51°15.758 2°46.78 12.2 49 7.8 102520 95
2004-02-11 08:28:50 51°15.759 2°46.748 12.5 49 7.8 102520 95
2004-02-11 08:28:55 51°15.76 2°46.716 11.7 44 7.8 102520 95
2004-02-11 08:28:59 51°15.76 2°46.691 12.2 49 7.8 102520 95
2004-02-11 08:29:05 51°15.762 2°46.652 11.9 47 7.8 102520 95
2004-02-11 08:29:10 51°15.763 2°46.62 12.7 43 7.8 102520 95
2004-02-11 08:29:15 51°15.764 2°46.589 12.6 48 7.8 102520 95
2004-02-11 08:29:21 51°15.765 2°46.55 12 44 7.8 102520 95
2004-02-11 08:29:25 51°15.766 2°46.525 12.2 47 7.8 102520 95
2004-02-11 08:29:30 51°15.767 2°46.493 12.8 44 7.8 102520 95
2004-02-11 08:29:35 51°15.768 2°46.461 12 44 7.8 102520 95
2004-02-11 08:29:39 51°15.769 2°46.435 11.8 45 7.8 102520 95
2004-02-11 08:29:45 51°15.77 2°46.397 12.8 41 7.8 102520 95
2004-02-11 08:29:50 51°15.771 2°46.365 11.6 41 7.8 102520 95
2004-02-11 08:29:55 51°15.772 2°46.333 11.1 42 7.8 102520 95
2004-02-11 08:30:00 51°15.773 2°46.301 10.5 45 7.8 102520 95
2004-02-11 08:30:05 51°15.774 2°46.269 12.6 47 7.8 102520 95
2004-02-11 08:30:10 51°15.775 2°46.237 12.4 43 7.8 102520 95
2004-02-11 08:30:15 51°15.776 2°46.205 12.7 51 7.8 102520 95
2004-02-11 08:30:19 51°15.778 2°46.18 12.1 40 7.8 102520 95
2004-02-11 08:30:25 51°15.779 2°46.141 11.5 42 7.8 102520 95
2004-02-11 08:30:30 51°15.779 2°46.109 12.6 39 7.8 102520 95
2004-02-11 08:30:35 51°15.78 2°46.077 11.8 43 7.8 102520 95
2004-02-11 08:30:39 51°15.781 2°46.051 12.2 42 7.8 102520 95
2004-02-11 08:30:45 51°15.782 2°46.013 12.4 43 7.8 102520 95
2004-02-11 08:30:49 51°15.783 2°45.987 12.7 42 7.8 102530 95
2004-02-11 08:30:55 51°15.784 2°45.949 12.2 47 7.8 102530 95
2004-02-11 08:31:00 51°15.785 2°45.916 13.2 43 7.8 102530 95
2004-02-11 08:31:05 51°15.786 2°45.885 10.9 43 7.8 102530 95
2004-02-11 08:31:10 51°15.787 2°45.853 12.2 43 7.8 102530 95
2004-02-11 08:31:15 51°15.788 2°45.82 12.3 43 7.8 102530 95
2004-02-11 08:31:20 51°15.79 2°45.788 12.6 41 7.8 102530 95
2004-02-11 08:31:25 51°15.79 2°45.756 12.5 41 7.8 102530 95
2004-02-11 08:31:30 51°15.792 2°45.725 11.7 41 7.8 102530 95
2004-02-11 08:31:35 51°15.792 2°45.692 12.4 39 7.8 102530 95
2004-02-11 08:31:39 51°15.793 2°45.666 14.3 45 7.8 102520 95
2004-02-11 08:31:45 51°15.794 2°45.628 13.2 40 7.8 102520 95
2004-02-11 08:31:50 51°15.796 2°45.596 13 43 7.8 102530 95
2004-02-11 08:31:55 51°15.797 2°45.565 13.1 43 7.8 102530 95
2004-02-11 08:31:59 51°15.797 2°45.539 12.5 41 7.8 102530 95
2004-02-11 08:32:05 51°15.8 2°45.5 12.3 43 7.8 102530 95
2004-02-11 08:32:10 51°15.8 2°45.468 12.2 38 7.8 102520 95
2004-02-11 08:32:15 51°15.803 2°45.437 13.2 43 7.8 102520 95
2004-02-11 08:32:19 51°15.804 2°45.411 12.8 38 7.8 102520 95
2004-02-11 08:32:25 51°15.806 2°45.372 12.8 41 7.8 102520 95
2004-02-11 08:32:30 51°15.808 2°45.341 11.9 40 7.8 102530 95
2004-02-11 08:32:35 51°15.81 2°45.31 13 41 7.8 102530 95
2004-02-11 08:32:41 51°15.812 2°45.272 12.5 45 7.8 102530 95
2004-02-11 08:32:45 51°15.814 2°45.246 12.3 41 7.8 102530 95
2004-02-11 08:32:50 51°15.815 2°45.214 13 39 7.8 102540 95
2004-02-11 08:32:55 51°15.818 2°45.183 11.9 40 7.8 102540 95
2004-02-11 08:33:00 51°15.82 2°45.151 11.8 41 7.8 102530 95
2004-02-11 08:33:05 51°15.822 2°45.12 12.7 39 7.8 102530 95
2004-02-11 08:33:10 51°15.825 2°45.088 11.7 42 7.8 102530 95
2004-02-11 08:33:15 51°15.827 2°45.057 12.2 39 7.8 102530 95
2004-02-11 08:33:19 51°15.828 2°45.032 11.4 41 7.8 102530 95
2004-02-11 08:33:25 51°15.831 2°44.995 12.2 43 7.8 102530 95
2004-02-11 08:33:30 51°15.832 2°44.964 12.3 39 7.8 102530 95
2004-02-11 08:33:35 51°15.834 2°44.932 13 43 7.8 102530 95
2004-02-11 08:33:39 51°15.836 2°44.907 13.1 42 7.8 102530 95
2004-02-11 08:33:45 51°15.839 2°44.869 12.7 45 7.8 102530 95
2004-02-11 08:33:49 51°15.841 2°44.844 13.2 41 7.8 102530 95
2004-02-11 08:33:55 51°15.846 2°44.807 12.4 36 7.8 102530 95
2004-02-11 08:33:59 51°15.848 2°44.781 12.3 40 7.8 102530 95
2004-02-11 08:34:05 51°15.853 2°44.744 12.8 38 7.8 102530 95
2004-02-11 08:34:09 51°15.856 2°44.719 12.8 42 7.8 102540 95
2004-02-11 08:34:15 51°15.861 2°44.681 11.9 42 7.8 102540 95
2004-02-11 08:34:19 51°15.865 2°44.657 13 41 7.8 102540 95
2004-02-11 08:34:25 51°15.87 2°44.62 13.2 41 7.8 102540 95
2004-02-11 08:34:30 51°15.873 2°44.589 12.9 39 7.8 102530 95
2004-02-11 08:34:34 51°15.877 2°44.564 12.6 41 7.8 102530 95
2004-02-11 08:34:39 51°15.881 2°44.533 12.8 44 7.8 102530 95
2004-02-11 08:34:45 51°15.885 2°44.495 12.5 36 7.8 102530 95
2004-02-11 08:34:49 51°15.889 2°44.471 12.3 40 7.8 102530 95
2004-02-11 08:34:55 51°15.894 2°44.434 12.8 41 7.8 102530 95
2004-02-11 08:34:59 51°15.897 2°44.409 12.8 37 7.8 102530 95
2004-02-11 08:35:05 51°15.902 2°44.373 13.5 40 7.8 102530 95
2004-02-11 08:35:10 51°15.906 2°44.341 12.8 35 7.8 102540 95
2004-02-11 08:35:15 51°15.911 2°44.31 12.9 35 7.8 102540 95
2004-02-11 08:35:19 51°15.915 2°44.286 12 33 7.8 102540 95
2004-02-11 08:35:25 51°15.923 2°44.251 13.7 30 7.8 102540 95
2004-02-11 08:35:30 51°15.931 2°44.223 13.9 30 7.8 102540 95
2004-02-11 08:35:35 51°15.939 2°44.195 14.1 28 7.8 102540 95
2004-02-11 08:35:40 51°15.949 2°44.168 12.8 29 7.9 102540 95
2004-02-11 08:35:45 51°15.959 2°44.142 14 25 7.9 102540 95
2004-02-11 08:35:49 51°15.969 2°44.123 14.1 22 7.8 102540 95
2004-02-11 08:35:55 51°15.984 2°44.095 14.8 22 7.8 102540 95
2004-02-11 08:35:59 51°15.994 2°44.077 14.2 20 7.8 102540 95
2004-02-11 08:36:05 51°16.011 2°44.051 13.4 16 7.8 102540 95
2004-02-11 08:36:10 51°16.024 2°44.03 13 21 7.8 102540 95
2004-02-11 08:36:15 51°16.039 2°44.009 14.2 17 7.8 102540 95
2004-02-11 08:36:20 51°16.053 2°43.988 13.7 19 7.9 102550 95
2004-02-11 08:36:25 51°16.067 2°43.968 13 13 7.9 102550 95
2004-02-11 08:36:30 51°16.082 2°43.95 13.5 12 7.9 102540 95
2004-02-11 08:36:35 51°16.098 2°43.933 13.9 10 7.9 102540 95
2004-02-11 08:36:40 51°16.114 2°43.917 14.9 13 7.9 102550 95
2004-02-11 08:36:45 51°16.131 2°43.903 13.3 11 7.9 102550 95
2004-02-11 08:36:50 51°16.147 2°43.888 15.7 14 7.9 102550 95
2004-02-11 08:36:55 51°16.163 2°43.873 14.8 13 7.9 102550 95
2004-02-11 08:36:59 51°16.175 2°43.859 15 15 7.9 102560 95
2004-02-11 08:37:05 51°16.194 2°43.84 15 14 7.9 102560 95
2004-02-11 08:37:09 51°16.207 2°43.826 13.9 15 7.9 102560 95
2004-02-11 08:37:15 51°16.226 2°43.806 14.7 14 7.9 102560 95
2004-02-11 08:37:19 51°16.238 2°43.792 15.3 15 7.9 102610 95
2004-02-11 08:37:25 51°16.257 2°43.772 15 15 7.9 102610 95
2004-02-11 08:37:30 51°16.273 2°43.754 14.8 11 7.9 102550 95
2004-02-11 08:37:35 51°16.289 2°43.737 15.1 17 7.9 102550 95
2004-02-11 08:37:39 51°16.301 2°43.723 15.3 14 7.9 102560 95
2004-02-11 08:37:45 51°16.321 2°43.703 14.2 15 7.9 102560 95
2004-02-11 08:37:49 51°16.333 2°43.689 15.6 16 7.9 102580 95
2004-02-11 08:37:55 51°16.352 2°43.669 15 18 7.9 102580 95
2004-02-11 08:38:00 51°16.368 2°43.652 14.1 15 7.9 102550 95
2004-02-11 08:38:05 51°16.384 2°43.635 14.5 15 7.9 102550 95
2004-02-11 08:38:09 51°16.396 2°43.622 14.4 16 7.9 102550 95
2004-02-11 08:38:15 51°16.415 2°43.601 14.5 14 7.9 102550 95
2004-02-11 08:38:19 51°16.428 2°43.587 12.9 16 7.9 102550 95
2004-02-11 08:38:25 51°16.447 2°43.567 13.7 15 7.9 102550 95
2004-02-11 08:38:29 51°16.459 2°43.554 14.3 15 7.9 102550 95
2004-02-11 08:38:35 51°16.478 2°43.534 14.2 17 7.9 102550 95
2004-02-11 08:38:40 51°16.494 2°43.518 13.7 15 7.9 102550 95
2004-02-11 08:38:45 51°16.51 2°43.502 15.6 14 7.9 102550 95
2004-02-11 08:38:49 51°16.523 2°43.488 14.9 15 7.9 102550 95
2004-02-11 08:38:55 51°16.541 2°43.47 14.3 14 7.9 102550 95
2004-02-11 08:39:00 51°16.557 2°43.454 13.5 11 7.9 102560 95
2004-02-11 08:39:05 51°16.573 2°43.439 15.1 12 7.9 102560 95
2004-02-11 08:39:09 51°16.586 2°43.427 14.1 15 7.9 102550 95
2004-02-11 08:39:15 51°16.605 2°43.409 13.6 13 7.9 102550 95
2004-02-11 08:39:19 51°16.618 2°43.397 14.6 9 7.9 102560 95
2004-02-11 08:39:25 51°16.637 2°43.38 14 12 7.9 102560 95
2004-02-11 08:39:29 51°16.65 2°43.367 13.5 11 7.9 102560 95
2004-02-11 08:39:35 51°16.669 2°43.35 14.3 11 7.9 102560 95
2004-02-11 08:39:39 51°16.682 2°43.337 14.9 13 7.9 102550 95
2004-02-11 08:39:45 51°16.702 2°43.319 14.4 14 7.9 102550 95
2004-02-11 08:39:50 51°16.718 2°43.304 14.8 13 7.9 102560 95
2004-02-11 08:39:55 51°16.734 2°43.289 14.8 11 7.9 102560 95
2004-02-11 08:39:59 51°16.748 2°43.277 14.8 15 7.9 102560 95
2004-02-11 08:40:05 51°16.767 2°43.26 13.5 11 7.9 102560 95
2004-02-11 08:40:09 51°16.781 2°43.249 13.9 11 7.9 102560 95
2004-02-11 08:40:15 51°16.8 2°43.232 13.8 10 7.9 102560 95
2004-02-11 08:40:19 51°16.814 2°43.221 14.1 9 7.9 102560 95
2004-02-11 08:40:25 51°16.834 2°43.204 13.3 13 7.9 102560 95
2004-02-11 08:40:29 51°16.847 2°43.193 13.7 13 7.9 102560 95
2004-02-11 08:40:35 51°16.866 2°43.176 14.4 11 7.9 102560 95
2004-02-11 08:40:40 51°16.883 2°43.162 14.5 14 7.9 102560 95
2004-02-11 08:40:45 51°16.899 2°43.148 14.4 10 7.9 102560 95
2004-02-11 08:40:49 51°16.913 2°43.137 13.6 10 7.9 102560 95
2004-02-11 08:40:55 51°16.932 2°43.119 14.3 14 7.9 102560 95
2004-02-11 08:41:00 51°16.949 2°43.104 15.6 11 7.9 102550 95
2004-02-11 08:41:05 51°16.965 2°43.089 15.2 12 7.9 102550 95
2004-02-11 08:41:09 51°16.979 2°43.078 13.5 10 8 102560 95
2004-02-11 08:41:15 51°16.998 2°43.061 14.2 9 8 102560 95
2004-02-11 08:41:19 51°17.011 2°43.05 15.1 11 8 102560 95
2004-02-11 08:41:25 51°17.031 2°43.033 14.3 9 8 102560 95
2004-02-11 08:41:30 51°17.048 2°43.02 13.1 10 7.9 102560 95
2004-02-11 08:41:35 51°17.065 2°43.007 13.9 13 7.9 102560 95
2004-02-11 08:41:39 51°17.078 2°42.997 14.2 8 8 102590 95
2004-02-11 08:41:45 51°17.098 2°42.982 14.7 10 8 102590 95
2004-02-11 08:41:50 51°17.115 2°42.969 14.4 10 8 102570 95
2004-02-11 08:41:55 51°17.131 2°42.956 15.1 10 8 102570 95
2004-02-11 08:41:59 51°17.145 2°42.945 14.1 8 8 102560 95
2004-02-11 08:42:05 51°17.165 2°42.929 14.5 10 8 102560 95
2004-02-11 08:42:10 51°17.181 2°42.915 15.4 8 7.9 102560 95
2004-02-11 08:42:15 51°17.198 2°42.901 14.1 8 7.9 102560 95
2004-02-11 08:42:19 51°17.211 2°42.89 13.2 7 8 102560 95
2004-02-11 08:42:25 51°17.231 2°42.873 14.9 10 8 102560 95
2004-02-11 08:42:30 51°17.248 2°42.859 14.9 6 8 102570 95
2004-02-11 08:42:35 51°17.264 2°42.845 15.2 11 8 102570 95
2004-02-11 08:42:40 51°17.281 2°42.831 14.2 5 8 102560 95
2004-02-11 08:42:45 51°17.298 2°42.817 14.6 14 8 102560 95
2004-02-11 08:42:50 51°17.315 2°42.803 15.6 12 8 102560 95
2004-02-11 08:42:55 51°17.332 2°42.789 15.3 4 8 102560 95
2004-02-11 08:42:59 51°17.347 2°42.778 15.4 16 8 102570 95
2004-02-11 08:43:05 51°17.368 2°42.761 16.2 9 8 102570 95
2004-02-11 08:43:10 51°17.386 2°42.747 15.2 13 8 102560 95
2004-02-11 08:43:15 51°17.404 2°42.733 15.5 11 8 102560 95
2004-02-11 08:43:19 51°17.418 2°42.722 15.9 10 8 102610 95
2004-02-11 08:43:25 51°17.439 2°42.705 15.4 6 8 102610 95
2004-02-11 08:43:30 51°17.457 2°42.691 15.1 11 8 102560 95
2004-02-11 08:43:35 51°17.475 2°42.678 14.3 9 8 102560 95
2004-02-11 08:43:39 51°17.49 2°42.667 15.9 10 8 102560 95
2004-02-11 08:43:45 51°17.511 2°42.652 15.9 6 8 102560 95
2004-02-11 08:43:50 51°17.528 2°42.64 15.3 11 8 102560 95
2004-02-11 08:43:55 51°17.546 2°42.628 14.9 8 8 102560 95
2004-02-11 08:43:59 51°17.56 2°42.619 15.1 10 8 102560 95
2004-02-11 08:44:05 51°17.581 2°42.604 15 11 8 102560 95
2004-02-11 08:44:10 51°17.598 2°42.593 14.8 7 8 102560 95
2004-02-11 08:44:15 51°17.615 2°42.581 13.8 8 8 102560 95
2004-02-11 08:44:19 51°17.629 2°42.572 15.3 11 8 102550 95
2004-02-11 08:44:25 51°17.649 2°42.559 14.8 10 8 102550 95
2004-02-11 08:44:30 51°17.667 2°42.548 15.1 8 8 102560 95
2004-02-11 08:44:35 51°17.684 2°42.536 15 8 8 102560 95
2004-02-11 08:44:39 51°17.697 2°42.527 15.7 10 8 102560 95
2004-02-11 08:44:45 51°17.718 2°42.514 15.1 8 8 102560 95
2004-02-11 08:44:50 51°17.735 2°42.503 16.4 8 8 102560 95
2004-02-11 08:44:55 51°17.752 2°42.491 16.5 8 8 102560 95
2004-02-11 08:45:00 51°17.769 2°42.48 15.3 7 8 102560 95
2004-02-11 08:45:05 51°17.786 2°42.469 15.6 7 8 102560 95
2004-02-11 08:45:09 51°17.801 2°42.459 16.1 11 8 102550 95
2004-02-11 08:45:15 51°17.822 2°42.445 15.8 11 8 102550 95
2004-02-11 08:45:19 51°17.836 2°42.436 16.1 9 8 102560 95
2004-02-11 08:45:25 51°17.856 2°42.423 15.5 6 8 102560 95
2004-02-11 08:45:29 51°17.87 2°42.413 15.7 9 8 102600 95
2004-02-11 08:45:35 51°17.89 2°42.399 14.1 9 8 102600 95
2004-02-11 08:45:40 51°17.907 2°42.387 15.6 8 8 102560 95
2004-02-11 08:45:45 51°17.925 2°42.376 14.5 8 8 102560 95
2004-02-11 08:45:50 51°17.942 2°42.364 15.9 10 8 102560 95
2004-02-11 08:45:55 51°17.959 2°42.353 15.8 11 8 102560 95
2004-02-11 08:45:59 51°17.973 2°42.344 15.5 11 8 102560 95
2004-02-11 08:46:05 51°17.994 2°42.33 14.6 10 8 102560 95
2004-02-11 08:46:09 51°18.007 2°42.321 17 5 8 102570 95
2004-02-11 08:46:15 51°18.028 2°42.306 15.7 14 8 102570 95
2004-02-11 08:46:19 51°18.042 2°42.296 15.2 10 8 102600 95
2004-02-11 08:46:25 51°18.063 2°42.28 15 10 8 102600 95
2004-02-11 08:46:30 51°18.08 2°42.267 15.2 13 8 102610 95
2004-02-11 08:46:35 51°18.097 2°42.254 14.2 12 8 102610 95
2004-02-11 08:46:39 51°18.11 2°42.243 15.7 10 8 102560 95
2004-02-11 08:46:45 51°18.131 2°42.228 16.3 14 8 102560 95
2004-02-11 08:46:50 51°18.148 2°42.216 15.7 9 8 102550 95
2004-02-11 08:46:55 51°18.165 2°42.203 16 9 8 102550 95
2004-02-11 08:46:59 51°18.178 2°42.193 16.4 7 8 102560 95
2004-02-11 08:47:05 51°18.198 2°42.178 15.7 9 8 102560 95
2004-02-11 08:47:10 51°18.215 2°42.165 15.9 7 8 102560 95
2004-02-11 08:47:15 51°18.231 2°42.152 16.6 11 8 102560 95
2004-02-11 08:47:19 51°18.245 2°42.141 15.2 8 8 102550 95
2004-02-11 08:47:25 51°18.265 2°42.126 15.6 9 8 102550 95
2004-02-11 08:47:30 51°18.282 2°42.113 15.8 9 8 102560 95
2004-02-11 08:47:35 51°18.298 2°42.1 16.2 11 8 102560 95
2004-02-11 08:47:39 51°18.312 2°42.09 16 12 8.1 102550 95
2004-02-11 08:47:45 51°18.332 2°42.075 15.5 11 8.1 102550 95
2004-02-11 08:47:50 51°18.349 2°42.063 16.3 8 8 102600 95
2004-02-11 08:47:55 51°18.366 2°42.05 16.5 11 8 102600 95
2004-02-11 08:47:59 51°18.379 2°42.04 16.6 12 8 102560 95
2004-02-11 08:48:05 51°18.399 2°42.025 16.2 14 8 102560 95
2004-02-11 08:48:10 51°18.416 2°42.012 17 9 8.1 102560 95
2004-02-11 08:48:15 51°18.432 2°42 18 12 8.1 102560 95
2004-02-11 08:48:20 51°18.449 2°41.988 17.1 9 8.1 102560 95
2004-02-11 08:48:25 51°18.466 2°41.977 17.5 13 8.1 102560 95
2004-02-11 08:48:29 51°18.48 2°41.969 17.4 9 8.1 102590 95
2004-02-11 08:48:35 51°18.5 2°41.957 17.8 8 8.1 102590 95
2004-02-11 08:48:39 51°18.513 2°41.949 16.2 9 8.1 102590 95
2004-02-11 08:48:45 51°18.534 2°41.938 16.2 6 8.1 102590 95
2004-02-11 08:48:50 51°18.551 2°41.929 15.4 6 8.1 102590 95
2004-02-11 08:48:55 51°18.568 2°41.92 15.8 6 8.1 102590 95
2004-02-11 08:48:59 51°18.582 2°41.913 17.5 13 8.1 102590 95
2004-02-11 08:49:05 51°18.603 2°41.901 16.1 9 8.1 102590 95
2004-02-11 08:49:10 51°18.62 2°41.891 15.3 8 8.1 102580 95
2004-02-11 08:49:15 51°18.638 2°41.882 15.1 6 8.1 102580 95
2004-02-11 08:49:19 51°18.652 2°41.874 16 9 8.1 102590 95
2004-02-11 08:49:25 51°18.673 2°41.863 14.7 6 8.1 102590 95
2004-02-11 08:49:30 51°18.691 2°41.853 15.7 8 8.1 102590 95
2004-02-11 08:49:35 51°18.708 2°41.843 16.1 8 8.1 102590 95
2004-02-11 08:49:39 51°18.722 2°41.835 14.8 6 8.1 102580 95
2004-02-11 08:49:45 51°18.743 2°41.823 16 7 8.1 102580 95
2004-02-11 08:49:49 51°18.758 2°41.816 16.6 7 8.1 102590 95
2004-02-11 08:49:55 51°18.779 2°41.804 17.8 7 8.1 102590 95
2004-02-11 08:49:59 51°18.793 2°41.796 16.6 10 8.1 102590 95
2004-02-11 08:50:05 51°18.814 2°41.784 16.1 7 8.1 102590 95
2004-02-11 08:50:10 51°18.832 2°41.774 16.6 3 8.1 102590 95
2004-02-11 08:50:15 51°18.849 2°41.766 15.8 7 8.1 102590 95
2004-02-11 08:50:20 51°18.867 2°41.756 15.9 10 8.1 102590 95
2004-02-11 08:50:25 51°18.884 2°41.746 14.4 11 8.1 102590 95
2004-02-11 08:50:29 51°18.899 2°41.738 15.4 7 8.1 102590 95
2004-02-11 08:50:35 51°18.919 2°41.727 14.5 7 8.1 102590 95
2004-02-11 08:50:40 51°18.936 2°41.717 15.6 9 8.1 102590 95
2004-02-11 08:50:45 51°18.954 2°41.707 15 8 8.1 102590 95
2004-02-11 08:50:50 51°18.971 2°41.697 13.7 6 8.1 102590 95
2004-02-11 08:50:55 51°18.989 2°41.688 15.4 5 8.1 102590 95
2004-02-11 08:50:59 51°19.002 2°41.681 16.4 7 8.1 102590 95
2004-02-11 08:51:05 51°19.023 2°41.671 17.3 4 8.1 102590 95
2004-02-11 08:51:10 51°19.04 2°41.664 15 1 8.1 102590 95
2004-02-11 08:51:15 51°19.057 2°41.655 13.9 6 8.1 102590 95
2004-02-11 08:51:20 51°19.074 2°41.649 16.8 4 8.1 102590 95
2004-02-11 08:51:25 51°19.09 2°41.641 15.6 3 8.1 102590 95
2004-02-11 08:51:30 51°19.107 2°41.634 15.5 4 8.2 102590 95
2004-02-11 08:51:35 51°19.125 2°41.627 14.4 5 8.2 102590 95
2004-02-11 08:51:41 51°19.145 2°41.619 15.9 4 8.1 102590 95
2004-02-11 08:51:45 51°19.159 2°41.613 16.5 4 8.1 102590 95
2004-02-11 08:51:50 51°19.177 2°41.607 16.6 5 8.1 102580 95
2004-02-11 08:51:55 51°19.194 2°41.599 15 2 8.1 102580 95
2004-02-11 08:52:00 51°19.212 2°41.592 15.3 360 8.2 102580 95
2004-02-11 08:52:05 51°19.23 2°41.585 15.9 3 8.2 102580 95
2004-02-11 08:52:09 51°19.244 2°41.579 14.3 5 8.2 102580 95
2004-02-11 08:52:15 51°19.266 2°41.57 15.5 8 8.2 102580 95
2004-02-11 08:52:19 51°19.28 2°41.564 16.2 1 8.1 102590 95
2004-02-11 08:52:25 51°19.301 2°41.554 15.7 5 8.1 102590 95
2004-02-11 08:52:30 51°19.319 2°41.547 14.2 4 8.2 102580 95
2004-02-11 08:52:35 51°19.337 2°41.539 15.1 2 8.2 102580 95
2004-02-11 08:52:39 51°19.351 2°41.533 14.8 3 8.2 102590 95
2004-02-11 08:52:45 51°19.372 2°41.524 14.2 4 8.2 102590 95
2004-02-11 08:52:49 51°19.386 2°41.518 15.6 2 8.2 102590 95
2004-02-11 08:52:55 51°19.407 2°41.508 14.6 2 8.2 102590 95
2004-02-11 08:52:59 51°19.421 2°41.502 15.4 1 8.2 102580 95
2004-02-11 08:53:05 51°19.442 2°41.495 14.7 2 8.2 102580 95
2004-02-11 08:53:10 51°19.46 2°41.488 14.7 4 8.2 102600 94
2004-02-11 08:53:15 51°19.478 2°41.483 14.8 1 8.2 102600 94
2004-02-11 08:53:19 51°19.493 2°41.478 15.6 1 8.2 102580 94
2004-02-11 08:53:25 51°19.514 2°41.472 16 360 8.2 102580 94
2004-02-11 08:53:30 51°19.532 2°41.467 15.4 1 8.2 102580 94
2004-02-11 08:53:35 51°19.55 2°41.462 15.4 1 8.2 102580 94
2004-02-11 08:53:39 51°19.564 2°41.458 13.6 2 8.2 102580 94
2004-02-11 08:53:45 51°19.586 2°41.452 15.5 1 8.2 102580 94
2004-02-11 08:53:49 51°19.6 2°41.448 14.9 1 8.2 102580 94
2004-02-11 08:53:55 51°19.621 2°41.442 15.3 1 8.2 102580 94
2004-02-11 08:53:59 51°19.635 2°41.439 14.7 4 8.2 102590 94
2004-02-11 08:54:05 51°19.657 2°41.433 14.2 357 8.2 102590 94
2004-02-11 08:54:09 51°19.671 2°41.428 14.6 359 8.2 102590 94
2004-02-11 08:54:15 51°19.692 2°41.422 13.7 1 8.2 102590 94
2004-02-11 08:54:19 51°19.706 2°41.418 15.7 357 8.2 102590 94
2004-02-11 08:54:25 51°19.728 2°41.414 14.8 356 8.2 102590 94
2004-02-11 08:54:29 51°19.742 2°41.411 14.3 360 8.2 102590 94
2004-02-11 08:54:35 51°19.764 2°41.408 14.2 360 8.2 102590 94
2004-02-11 08:54:40 51°19.782 2°41.404 14   8.2 102580 94
2004-02-11 08:54:45 51°19.799 2°41.402 15.4 357 8.2 102580 94
2004-02-11 08:54:50 51°19.817 2°41.399 14.7 359 8.2 102590 94
2004-02-11 08:54:55 51°19.836 2°41.398 14.8 359 8.2 102590 94
2004-02-11 08:54:59 51°19.85 2°41.395 15.5 360 8.2 102580 94
2004-02-11 08:55:05 51°19.872 2°41.393 14.2 356 8.2 102580 94
2004-02-11 08:55:10 51°19.89 2°41.391 15.3 358 8.2 102590 94
2004-02-11 08:55:15 51°19.908 2°41.39 16.5 357 8.2 102590 94
2004-02-11 08:55:20 51°19.926 2°41.388 14.5 356 8.2 102590 94
2004-02-11 08:55:25 51°19.944 2°41.387 15.7 356 8.2 102590 94
2004-02-11 08:55:30 51°19.962 2°41.387 15.3 357 8.2 102580 94
2004-02-11 08:55:35 51°19.98 2°41.387 15 353 8.2 102580 94
2004-02-11 08:55:40 51°19.998 2°41.388 15.2 356 8.2 102580 94
2004-02-11 08:55:45 51°20.016 2°41.39 13.6 357 8.2 102580 94
2004-02-11 08:55:50 51°20.034 2°41.393 16.4 353 8.2 102590 94
2004-02-11 08:55:55 51°20.052 2°41.396 14.8 349 8.2 102590 94
2004-02-11 08:56:00 51°20.07 2°41.397 14.8 355 8.2 102580 94
2004-02-11 08:56:05 51°20.088 2°41.401 14 353 8.2 102580 94
2004-02-11 08:56:09 51°20.103 2°41.402 14.7 352 8.2 102580 94
2004-02-11 08:56:15 51°20.125 2°41.406 14.9 353 8.2 102580 94
2004-02-11 08:56:19 51°20.139 2°41.408 15 353 8.2 102580 94
2004-02-11 08:56:25 51°20.161 2°41.412 16.1 354 8.2 102580 94
2004-02-11 08:56:29 51°20.175 2°41.415 15.3 356 8.2 102580 94
2004-02-11 08:56:35 51°20.197 2°41.418 14.8 354 8.2 102580 94
2004-02-11 08:56:39 51°20.211 2°41.42 14.1 353 8.2 102590 94
2004-02-11 08:56:45 51°20.233 2°41.423 15.3 351 8.2 102590 94
2004-02-11 08:56:50 51°20.251 2°41.426 15.9 353 8.2 102600 94
2004-02-11 08:56:55 51°20.269 2°41.428 14.1 356 8.2 102600 94
2004-02-11 08:57:00 51°20.286 2°41.431 15.5 352 8.2 102590 94
2004-02-11 08:57:05 51°20.304 2°41.433 15.9 351 8.2 102590 94
2004-02-11 08:57:10 51°20.321 2°41.437 14.6 353 8.2 102590 94
2004-02-11 08:57:15 51°20.338 2°41.439 16.6 355 8.2 102590 94
2004-02-11 08:57:19 51°20.352 2°41.442 13.1 347 8.2 102590 94
2004-02-11 08:57:25 51°20.371 2°41.448 15.4 347 8.2 102590 94
2004-02-11 08:57:29 51°20.383 2°41.452 13.9 347 8.2 102580 94
2004-02-11 08:57:35 51°20.4 2°41.459 13.6 341 8.2 102580 94
2004-02-11 08:57:40 51°20.413 2°41.465 13.9 338 8.2 102590 94
2004-02-11 08:57:45 51°20.423 2°41.475 12.1 329 8.2 102590 94
2004-02-11 08:57:50 51°20.432 2°41.485 10.3 228 8.2 102600 94
2004-02-11 08:57:55 51°20.438 2°41.497 9.5 305 8.2 102600 94
2004-02-11 08:57:59 51°20.441 2°41.506 8.5 305 8.2 102590 94
2004-02-11 08:58:05 51°20.444 2°41.518 8.7 298 8.2 102590 94
2004-02-11 08:58:10 51°20.445 2°41.529 9.1 290 8.2 102600 94
2004-02-11 08:58:15 51°20.445 2°41.538 9 282 8.2 102600 94
2004-02-11 08:58:19 51°20.445 2°41.546 9.7 268 8.2 102610 94
2004-02-11 08:58:25 51°20.443 2°41.555 10.1 269 8.2 102610 94
2004-02-11 08:58:30 51°20.442 2°41.563 8.6 262 8.2 102620 94
2004-02-11 08:58:35 51°20.441 2°41.569 8.9 266 8.2 102620 94
2004-02-11 08:58:39 51°20.44 2°41.574 7.6 268 8.2 102620 94
2004-02-11 08:58:45 51°20.438 2°41.58 7.4 262 8.2 102620 94
2004-02-11 08:58:49 51°20.438 2°41.582 7.1 256 8.2 102630 94
2004-02-11 08:58:55 51°20.437 2°41.584 8.1 266 8.2 102630 94
2004-02-11 08:58:59 51°20.436 2°41.585 7.9 260 8.2 102630 94
2004-02-11 08:59:05 51°20.435 2°41.585 9.9 271 8.2 102630 94
2004-02-11 08:59:10 51°20.434 2°41.585 9.8 277 8.2 102630 94
2004-02-11 08:59:15 51°20.434 2°41.585 8.7 281 8.1 102620 94
2004-02-11 08:59:19 51°20.433 2°41.585 8.5 282 8.1 102620 94
2004-02-11 08:59:25 51°20.433 2°41.585 7.9 283 8.2 102630 94
2004-02-11 08:59:29 51°20.432 2°41.585 8.9 283 8.2 102630 94
2004-02-11 08:59:35 51°20.432 2°41.585 8.3 290 8.1 102620 94
2004-02-11 08:59:40 51°20.431 2°41.585 8.8 288 8.1 102620 94
2004-02-11 08:59:45 51°20.431 2°41.585 9 295 8.1 102620 94
2004-02-11 08:59:49 51°20.431 2°41.584 8.2 289 8.1 102620 94
2004-02-11 08:59:55 51°20.43 2°41.584 7.6 293 8.1 102620 94
2004-02-11 08:59:59 51°20.43 2°41.584 8.3 296 8.1 102620 94
2004-02-11 09:00:05 51°20.43 2°41.584 7.8 289 8.1 102620 94
2004-02-11 09:00:09 51°20.429 2°41.583 7.3 292 8.1 102620 94
2004-02-11 09:00:15 51°20.429 2°41.583 7.6 291 8.1 102620 94
2004-02-11 09:00:20 51°20.429 2°41.582 7.6 300 8.1 102620 94
2004-02-11 09:00:25 51°20.428 2°41.582 8.1 295 8.1 102630 94
2004-02-11 09:00:29 51°20.428 2°41.582 7.8 296 8.1 102630 94
2004-02-11 09:00:35 51°20.427 2°41.582 8.6 295 8.1 102630 94
2004-02-11 09:00:39 51°20.427 2°41.581 8.8 301 8.1 102630 94
2004-02-11 09:00:45 51°20.427 2°41.58 7.8 299 8.1 102630 94
2004-02-11 09:00:50 51°20.426 2°41.58 8.5 301 8.1 102630 94
2004-02-11 09:00:55 51°20.426 2°41.579 7.5 297 8.1 102630 94
2004-02-11 09:00:59 51°20.426 2°41.578 8.1 309 8.1 102630 94
2004-02-11 09:01:05 51°20.425 2°41.577 9.4 312 8.1 102630 94
2004-02-11 09:01:09 51°20.425 2°41.576 8.4 303 8.1 102630 94
2004-02-11 09:01:15 51°20.425 2°41.576 8.6 310 8.1 102630 94
2004-02-11 09:01:20 51°20.424 2°41.575 8 227 8.1 102630 94
2004-02-11 09:01:25 51°20.424 2°41.574 7.6 312 8.1 102630 94
2004-02-11 09:01:29 51°20.424 2°41.574 8.5 309 8.1 102630 94
2004-02-11 09:01:35 51°20.424 2°41.573 9.2 313 8.1 102630 94
2004-02-11 09:01:41 51°20.424 2°41.572 8.3 312 8.1 102630 94
2004-02-11 09:01:45 51°20.424 2°41.571 8.2 315 8.1 102630 94
2004-02-11 09:01:49 51°20.424 2°41.571 8.6 226 8.1 102630 94
2004-02-11 09:01:55 51°20.423 2°41.57 8.5 310 8.1 102630 94
2004-02-11 09:01:59 51°20.423 2°41.569 8.5 308 8.1 102630 94
2004-02-11 09:02:05 51°20.423 2°41.568 8.9 311 8.1 102630 94
2004-02-11 09:02:09 51°20.423 2°41.567 8.3 315 8.1 102630 94
2004-02-11 09:02:15 51°20.422 2°41.567 8.3 319 8.1 102630 94
2004-02-11 09:02:19 51°20.422 2°41.565 9.2 315 8.1 102630 94
2004-02-11 09:02:25 51°20.422 2°41.565 7.1 317 8.1 102630 94
2004-02-11 09:02:29 51°20.422 2°41.565 7.4 227 8.1 102630 94
2004-02-11 09:02:35 51°20.422 2°41.564 8.4 318 8.1 102630 94
2004-02-11 09:02:39 51°20.422 2°41.563 7.2 323 8.1 102630 94
2004-02-11 09:02:45 51°20.422 2°41.562 8.1 322 8.1 102630 94
2004-02-11 09:02:49 51°20.423 2°41.561 7.6 324 8.1 102630 94
2004-02-11 09:02:55 51°20.423 2°41.56 7.5 327 8.1 102630 94
2004-02-11 09:02:59 51°20.423 2°41.56 7.5 328 8.1 102630 94
2004-02-11 09:03:05 51°20.424 2°41.559 7.6 330 8.1 102620 94
2004-02-11 09:03:09 51°20.424 2°41.558 6.6 334 8.1 102620 94
2004-02-11 09:03:15 51°20.425 2°41.556 7.1 337 8.2 102630 94
2004-02-11 09:03:19 51°20.425 2°41.556 7.3 337 8.2 102630 94
2004-02-11 09:03:25 51°20.426 2°41.555 7.3 330 8.1 102630 94
2004-02-11 09:03:30 51°20.426 2°41.554 7.4 329 8.1 102630 94
2004-02-11 09:03:35 51°20.426 2°41.553 7.9 334 8.1 102630 94
2004-02-11 09:03:39 51°20.426 2°41.552 7.1 333 8.1 102630 94
2004-02-11 09:03:45 51°20.426 2°41.551 7.7 330 8.1 102630 94
2004-02-11 09:03:50 51°20.426 2°41.549 7.9 335 8.1 102630 94
2004-02-11 09:03:55 51°20.427 2°41.548 7.4 333 8.1 102630 94
2004-02-11 09:03:59 51°20.427 2°41.547 8 341 8.1 102630 94
2004-02-11 09:04:05 51°20.428 2°41.545 8 337 8.1 102630 94
2004-02-11 09:04:09 51°20.428 2°41.545 7.7 343 8.1 102630 94
2004-02-11 09:04:15 51°20.429 2°41.543 7.4 340 8.1 102630 94
2004-02-11 09:04:19 51°20.43 2°41.542 7.9 343 8.1 102630 94
2004-02-11 09:04:25 51°20.431 2°41.54 6.7 339 8.1 102630 94
2004-02-11 09:04:30 51°20.432 2°41.538 7.2 346 8.1 102630 94
2004-02-11 09:04:35 51°20.433 2°41.536 6.3 348 8.1 102630 94
2004-02-11 09:04:40 51°20.434 2°41.535 6.9 344 8.1 102630 94
2004-02-11 09:04:45 51°20.435 2°41.533 7.1 343 8.2 102640 94
2004-02-11 09:04:49 51°20.436 2°41.531 8.2 341 8.2 102640 94
2004-02-11 09:04:55 51°20.437 2°41.529 7.2 348 8.2 102640 94
2004-02-11 09:05:00 51°20.438 2°41.528 7.2 347 8.2 102640 94
2004-02-11 09:05:05 51°20.44 2°41.526 8.1 345 8.1 102630 94
2004-02-11 09:05:10 51°20.441 2°41.524 7.5 347 8.1 102630 94
2004-02-11 09:05:15 51°20.443 2°41.522 8.5 350 8.1 102630 94
2004-02-11 09:05:19 51°20.444 2°41.521 6.7 345 8.1 102630 94
2004-02-11 09:05:25 51°20.446 2°41.518 8.1 355 8.2 102630 94
2004-02-11 09:05:29 51°20.448 2°41.517 7.7 342 8.2 102630 94
2004-02-11 09:05:35 51°20.45 2°41.514 7.7 347 8.1 102630 94
2004-02-11 09:05:39 51°20.451 2°41.513 8.3 348 8.1 102630 94
2004-02-11 09:05:45 51°20.453 2°41.511 8.6 345 8.2 102630 94
2004-02-11 09:05:50 51°20.455 2°41.509 8.2 352 8.2 102630 94
2004-02-11 09:05:55 51°20.457 2°41.507 8.1 351 8.2 102630 94
2004-02-11 09:06:00 51°20.459 2°41.505 9.2 348 8.2 102630 94
2004-02-11 09:06:05 51°20.46 2°41.503 9.6 348 8.2 102630 94
2004-02-11 09:06:09 51°20.462 2°41.502 8.5 347 8.2 102630 94
2004-02-11 09:06:15 51°20.464 2°41.499 7.9 348 8.2 102630 94
2004-02-11 09:06:20 51°20.465 2°41.498 8.2 345 8.2 102630 94
2004-02-11 09:06:25 51°20.466 2°41.496 7.6 350 8.2 102630 94
2004-02-11 09:06:29 51°20.467 2°41.494 7.3 348 8.2 102630 94
2004-02-11 09:06:35 51°20.469 2°41.492 7.1 349 8.2 102630 94
2004-02-11 09:06:40 51°20.47 2°41.49 7.1 346 8.2 102630 94
2004-02-11 09:06:45 51°20.471 2°41.488 7.2 346 8.2 102630 94
2004-02-11 09:06:49 51°20.472 2°41.486 7.6 347 8.2 102630 94
2004-02-11 09:06:55 51°20.474 2°41.484 7.5 346 8.2 102630 94
2004-02-11 09:06:59 51°20.475 2°41.483 7.7 342 8.2 102630 94
2004-02-11 09:07:05 51°20.478 2°41.481 8.4 343 8.2 102630 94
2004-02-11 09:07:10 51°20.48 2°41.48 8.1 335 8.2 102630 94
2004-02-11 09:07:15 51°20.482 2°41.479 9.6 332 8.2 102630 94
2004-02-11 09:07:20 51°20.485 2°41.479 8.8 323 8.2 102630 94
2004-02-11 09:07:25 51°20.487 2°41.479 8.4 319 8.2 102630 94
2004-02-11 09:07:29 51°20.49 2°41.48 8.3 228 8.2 102630 94
2004-02-11 09:07:35 51°20.493 2°41.483 8.4 307 8.2 102620 94
2004-02-11 09:07:40 51°20.495 2°41.486 8.6 302 8.2 102620 94
2004-02-11 09:07:45 51°20.497 2°41.491 9.4 292 8.2 102630 94
2004-02-11 09:07:49 51°20.498 2°41.495 9.1 287 8.2 102630 94
2004-02-11 09:07:55 51°20.499 2°41.502 8.8 284 8.2 102620 94
2004-02-11 09:08:01 51°20.499 2°41.51 9.5 272 8.2 102620 94
2004-02-11 09:08:05 51°20.499 2°41.516 8.1 266 8.2 102630 94
2004-02-11 09:08:09 51°20.499 2°41.523 5.8 260 8.2 102630 94
2004-02-11 09:08:15 51°20.496 2°41.532 5 255 8.2 102630 94
2004-02-11 09:08:19 51°20.494 2°41.538 4 255 8.2 102630 94
2004-02-11 09:08:25 51°20.49 2°41.548 4.7 250 8.2 102630 94
2004-02-11 09:08:29 51°20.486 2°41.553 5.1 238 8.2 102630 94
2004-02-11 09:08:35 51°20.48 2°41.562 4.8 221 8.2 102650 94
2004-02-11 09:08:40 51°20.474 2°41.568 4 228 8.2 102650 94
2004-02-11 09:08:45 51°20.467 2°41.571 4.3 220 8.2 102640 94
2004-02-11 09:08:50 51°20.459 2°41.576 2.9 183 8.2 102640 94
2004-02-11 09:08:55 51°20.451 2°41.578 3 194 8.2 102640 94
2004-02-11 09:09:00 51°20.443 2°41.578 2.8 180 8.2 102640 94
2004-02-11 09:09:05 51°20.434 2°41.577 2.8 132 8.2 102640 94
2004-02-11 09:09:10 51°20.424 2°41.575 3.6 149 8.2 102640 94
2004-02-11 09:09:15 51°20.414 2°41.569 4.2 136 8.2 102640 94
2004-02-11 09:09:19 51°20.405 2°41.564 5 123 8.2 102640 94
2004-02-11 09:09:25 51°20.393 2°41.552 4.3 127 8.2 102640 94
2004-02-11 09:09:29 51°20.383 2°41.545 4.8 119 8.2 102640 94
2004-02-11 09:09:35 51°20.37 2°41.531 4.8 117 8.2 102630 94
2004-02-11 09:09:39 51°20.36 2°41.522 6.6 108 8.2 102630 94
2004-02-11 09:09:45 51°20.347 2°41.505 5.7 109 8.2 102630 94
2004-02-11 09:09:49 51°20.337 2°41.494 6.9 98 8.2 102630 94
2004-02-11 09:09:55 51°20.324 2°41.475 6.5 106 8.2 102630 94
2004-02-11 09:10:00 51°20.312 2°41.459 6.5 105 8.2 102630 94
2004-02-11 09:10:05 51°20.301 2°41.441 6 97 8.2 102630 94
2004-02-11 09:10:09 51°20.292 2°41.428 6.7 96 8.2 102630 94
2004-02-11 09:10:15 51°20.279 2°41.406 6.3 100 8.2 102630 94
2004-02-11 09:10:19 51°20.27 2°41.393 6.8 103 8.2 102630 94
2004-02-11 09:10:25 51°20.256 2°41.373 6.3 105 8.2 102630 94
2004-02-11 09:10:30 51°20.243 2°41.358 6 112 8.2 102630 94
2004-02-11 09:10:35 51°20.23 2°41.342 5.8 115 8.2 102630 94
2004-02-11 09:10:39 51°20.22 2°41.333 4.5   8.2 102630 94
2004-02-11 09:10:45 51°20.203 2°41.319 4.4 117 8.2 102630 94
2004-02-11 09:10:50 51°20.19 2°41.308 4.3 120 8.2 102630 94
2004-02-11 09:10:55 51°20.177 2°41.298 5 129 8.2 102630 94
2004-02-11 09:10:59 51°20.167 2°41.291 5.6 128 8.2 102630 94
2004-02-11 09:11:05 51°20.153 2°41.281 4.2 138 8.2 102630 94
2004-02-11 09:11:10 51°20.141 2°41.273 4.3 140 8.2 102630 94
2004-02-11 09:11:15 51°20.13 2°41.266 4.7 140 8.2 102640 94
2004-02-11 09:11:19 51°20.122 2°41.26 4.9 130 8.2 102640 94
2004-02-11 09:11:25 51°20.109 2°41.252 4.2 130 8.2 102640 94
2004-02-11 09:11:29 51°20.102 2°41.246 4.5 147 8.2 102640 94
2004-02-11 09:11:35 51°20.091 2°41.242 4.2 160 8.2 102640 94
2004-02-11 09:11:39 51°20.084 2°41.238 3.2 167 8.2 102640 94
2004-02-11 09:11:45 51°20.074 2°41.236 2.8 186 8.2 102640 94
2004-02-11 09:11:49 51°20.067 2°41.237 2.2 200 8.2 102640 94
2004-02-11 09:11:55 51°20.058 2°41.239 5 216 8.2 102640 94
2004-02-11 09:11:59 51°20.053 2°41.242 4.4 229 8.2 102640 94
2004-02-11 09:12:05 51°20.046 2°41.249 4 255 8.2 102640 94
2004-02-11 09:12:09 51°20.041 2°41.253 5.8 260 8.2 102640 94
2004-02-11 09:12:15 51°20.037 2°41.264 7.4 264 8.2 102640 94
2004-02-11 09:12:20 51°20.033 2°41.272 8.2 278 8.2 102640 94
2004-02-11 09:12:25 51°20.032 2°41.282 7.3 284 8.2 102640 94
2004-02-11 09:12:29 51°20.031 2°41.289 8.7 296 8.2 102640 94
2004-02-11 09:12:35 51°20.032 2°41.3 9.2 296 8.2 102620 94
2004-02-11 09:12:39 51°20.033 2°41.307 8.9 305 8.2 102620 94
2004-02-11 09:12:45 51°20.037 2°41.317 9.3 314 8.2 102620 94
2004-02-11 09:12:49 51°20.04 2°41.323 9.6 41 8.2 102620 94
2004-02-11 09:12:55 51°20.045 2°41.33 10.1 324 8.2 102620 94
2004-02-11 09:12:59 51°20.048 2°41.335 10.9 333 8.2 102620 94
2004-02-11 09:13:05 51°20.055 2°41.339 10.2 341 8.2 102620 94
2004-02-11 09:13:09 51°20.06 2°41.341 9.4 350 8.2 102620 94
2004-02-11 09:13:15 51°20.068 2°41.341 9.4 351 8.2 102620 94
2004-02-11 09:13:19 51°20.073 2°41.341 10.5 357 8.2 102620 94
2004-02-11 09:13:25 51°20.079 2°41.339 9.5 355 8.2 102620 94
2004-02-11 09:13:30 51°20.084 2°41.336 9 10 8.2 102620 94
2004-02-11 09:13:35 51°20.088 2°41.333 8.4 14 8.2 102630 94
2004-02-11 09:13:40 51°20.092 2°41.33 9.6 13 8.2 102630 94
2004-02-11 09:13:45 51°20.096 2°41.326 9.8 20 8.2 102630 94
2004-02-11 09:13:49 51°20.099 2°41.322 9.1 23 8.2 102630 94
2004-02-11 09:13:55 51°20.103 2°41.316 7.8 23 8.2 102640 94
2004-02-11 09:14:00 51°20.106 2°41.31 8.3 27 8.2 102640 94
2004-02-11 09:14:05 51°20.108 2°41.305 7.5 28 8.2 102640 94
2004-02-11 09:14:09 51°20.109 2°41.302 7.6 26 8.2 102640 94
2004-02-11 09:14:15 51°20.109 2°41.298 7.2 36 8.2 102640 94
2004-02-11 09:14:19 51°20.109 2°41.295 7.1 30 8.2 102640 94
2004-02-11 09:14:25 51°20.107 2°41.293 6.5 37 8.2 102630 94
2004-02-11 09:14:30 51°20.106 2°41.291 6.2 33 8.2 102630 94
2004-02-11 09:14:35 51°20.104 2°41.29 6.5 31 8.2 102630 94
2004-02-11 09:14:40 51°20.101 2°41.289 6.5 40 8.2 102630 94
2004-02-11 09:14:45 51°20.099 2°41.289 6.4 35 8.2 102630 93
2004-02-11 09:14:50 51°20.097 2°41.288 5.8 35 8.2 102630 93
2004-02-11 09:14:55 51°20.096 2°41.286 5.7 33 8.1 102630 93
2004-02-11 09:15:01 51°20.094 2°41.283 6.5 39 8.1 102630 93
2004-02-11 09:15:05 51°20.093 2°41.28 7 32 8.2 102640 93
2004-02-11 09:15:10 51°20.093 2°41.277 7.5 29 8.2 102640 93
2004-02-11 09:15:15 51°20.094 2°41.272 7.6 24 8.2 102640 93
2004-02-11 09:15:21 51°20.095 2°41.267 7.6 21 8.2 102640 93
2004-02-11 09:15:25 51°20.096 2°41.263 7.2 25 8.2 102640 93
2004-02-11 09:15:30 51°20.097 2°41.258 7.5 21 8.2 102640 93
2004-02-11 09:15:35 51°20.098 2°41.254 6.7 23 8.1 102640 93
2004-02-11 09:15:40 51°20.099 2°41.25 7.5 21 8.1 102640 93
2004-02-11 09:15:45 51°20.1 2°41.246 7.8 19 8.2 102640 93
2004-02-11 09:15:49 51°20.1 2°41.242 8 20 8.2 102640 93
2004-02-11 09:15:55 51°20.102 2°41.238 7.4 16 8.2 102640 93
2004-02-11 09:16:00 51°20.102 2°41.234 7.4 13 8.2 102640 93
2004-02-11 09:16:05 51°20.103 2°41.231 7.4 12 8.2 102640 93
2004-02-11 09:16:09 51°20.104 2°41.227 7.9 9 8.2 102640 93
2004-02-11 09:16:15 51°20.104 2°41.223 7.4 8 8.2 102640 93